sensor_id;sensor_type;location;lat;lon;timestamp;P1;durP1;ratioP1;P2;durP2;ratioP2
12554;SDS011;6343;50.868;4.700;2023-11-19T00:01:23;1.57;;;1.20;;
12554;SDS011;6343;50.868;4.700;2023-11-19T00:03:49;5.57;;;1.60;;
12554;SDS011;6343;50.868;4.700;2023-11-19T00:06:15;3.33;;;1.57;;
12554;SDS011;6343;50.868;4.700;2023-11-19T00:08:42;4.80;;;1.33;;
12554;SDS011;6343;50.868;4.700;2023-11-19T00:11:11;8.00;;;1.40;;
12554;SDS011;6343;50.868;4.700;2023-11-19T00:13:40;8.33;;;1.70;;
12554;SDS011;6343;50.868;4.700;2023-11-19T00:16:06;4.70;;;1.97;;
12554;SDS011;6343;50.868;4.700;2023-11-19T00:18:34;5.37;;;2.00;;
12554;SDS011;6343;50.868;4.700;2023-11-19T00:21:01;9.40;;;2.10;;
12554;SDS011;6343;50.868;4.700;2023-11-19T00:23:27;6.23;;;1.90;;
12554;SDS011;6343;50.868;4.700;2023-11-19T00:25:53;9.37;;;2.10;;
12554;SDS011;6343;50.868;4.700;2023-11-19T00:28:19;7.93;;;2.20;;
12554;SDS011;6343;50.868;4.700;2023-11-19T00:30:45;13.57;;;2.53;;
12554;SDS011;6343;50.868;4.700;2023-11-19T00:33:12;13.33;;;2.23;;
12554;SDS011;6343;50.868;4.700;2023-11-19T00:35:38;5.83;;;1.90;;
12554;SDS011;6343;50.868;4.700;2023-11-19T00:38:04;9.33;;;2.30;;
12554;SDS011;6343;50.868;4.700;2023-11-19T00:40:30;4.97;;;1.80;;
12554;SDS011;6343;50.868;4.700;2023-11-19T00:42:56;9.47;;;2.17;;
12554;SDS011;6343;50.868;4.700;2023-11-19T00:45:22;8.00;;;2.30;;
12554;SDS011;6343;50.868;4.700;2023-11-19T00:47:48;9.90;;;2.17;;
12554;SDS011;6343;50.868;4.700;2023-11-19T00:50:14;6.93;;;2.10;;
12554;SDS011;6343;50.868;4.700;2023-11-19T00:52:40;10.67;;;2.47;;
12554;SDS011;6343;50.868;4.700;2023-11-19T00:55:07;7.30;;;2.67;;
12554;SDS011;6343;50.868;4.700;2023-11-19T00:57:33;6.83;;;2.70;;
12554;SDS011;6343;50.868;4.700;2023-11-19T01:00:00;10.10;;;2.67;;
12554;SDS011;6343;50.868;4.700;2023-11-19T01:02:27;8.23;;;2.30;;
12554;SDS011;6343;50.868;4.700;2023-11-19T01:04:54;10.80;;;2.50;;
12554;SDS011;6343;50.868;4.700;2023-11-19T01:07:20;9.37;;;2.30;;
12554;SDS011;6343;50.868;4.700;2023-11-19T01:09:47;10.70;;;3.20;;
12554;SDS011;6343;50.868;4.700;2023-11-19T01:12:13;9.80;;;2.30;;
12554;SDS011;6343;50.868;4.700;2023-11-19T01:14:39;12.73;;;2.53;;
12554;SDS011;6343;50.868;4.700;2023-11-19T01:17:05;12.13;;;2.83;;
12554;SDS011;6343;50.868;4.700;2023-11-19T01:19:31;15.93;;;2.53;;
12554;SDS011;6343;50.868;4.700;2023-11-19T01:21:57;16.73;;;3.17;;
12554;SDS011;6343;50.868;4.700;2023-11-19T01:24:23;11.57;;;3.10;;
12554;SDS011;6343;50.868;4.700;2023-11-19T01:26:53;13.03;;;3.23;;
12554;SDS011;6343;50.868;4.700;2023-11-19T01:29:19;7.83;;;2.47;;
12554;SDS011;6343;50.868;4.700;2023-11-19T01:31:46;14.20;;;2.73;;
12554;SDS011;6343;50.868;4.700;2023-11-19T01:34:12;11.13;;;2.40;;
12554;SDS011;6343;50.868;4.700;2023-11-19T01:36:38;7.30;;;2.53;;
12554;SDS011;6343;50.868;4.700;2023-11-19T01:39:04;13.43;;;2.37;;
12554;SDS011;6343;50.868;4.700;2023-11-19T01:41:37;6.47;;;2.40;;
12554;SDS011;6343;50.868;4.700;2023-11-19T01:44:06;10.50;;;2.83;;
12554;SDS011;6343;50.868;4.700;2023-11-19T01:46:32;16.43;;;2.97;;
12554;SDS011;6343;50.868;4.700;2023-11-19T01:48:58;12.97;;;2.83;;
12554;SDS011;6343;50.868;4.700;2023-11-19T01:51:25;9.33;;;2.90;;
12554;SDS011;6343;50.868;4.700;2023-11-19T01:53:51;11.73;;;2.40;;
12554;SDS011;6343;50.868;4.700;2023-11-19T01:56:18;10.50;;;2.30;;
12554;SDS011;6343;50.868;4.700;2023-11-19T01:58:44;14.10;;;2.83;;
12554;SDS011;6343;50.868;4.700;2023-11-19T02:01:12;13.50;;;2.50;;
12554;SDS011;6343;50.868;4.700;2023-11-19T02:03:38;14.67;;;2.70;;
12554;SDS011;6343;50.868;4.700;2023-11-19T02:06:04;10.20;;;2.80;;
12554;SDS011;6343;50.868;4.700;2023-11-19T02:08:30;12.40;;;2.60;;
12554;SDS011;6343;50.868;4.700;2023-11-19T02:10:57;10.57;;;2.50;;
12554;SDS011;6343;50.868;4.700;2023-11-19T02:13:24;12.73;;;3.07;;
12554;SDS011;6343;50.868;4.700;2023-11-19T02:15:50;14.53;;;3.23;;
12554;SDS011;6343;50.868;4.700;2023-11-19T02:18:17;15.07;;;3.33;;
12554;SDS011;6343;50.868;4.700;2023-11-19T02:20:43;16.77;;;3.03;;
12554;SDS011;6343;50.868;4.700;2023-11-19T02:23:09;15.17;;;2.83;;
12554;SDS011;6343;50.868;4.700;2023-11-19T02:25:36;18.77;;;2.97;;
12554;SDS011;6343;50.868;4.700;2023-11-19T02:28:02;14.27;;;3.47;;
12554;SDS011;6343;50.868;4.700;2023-11-19T02:30:29;13.83;;;3.20;;
12554;SDS011;6343;50.868;4.700;2023-11-19T02:32:57;13.13;;;2.90;;
12554;SDS011;6343;50.868;4.700;2023-11-19T02:35:27;11.93;;;3.03;;
12554;SDS011;6343;50.868;4.700;2023-11-19T02:37:56;15.47;;;3.37;;
12554;SDS011;6343;50.868;4.700;2023-11-19T02:40:22;18.07;;;3.53;;
12554;SDS011;6343;50.868;4.700;2023-11-19T02:42:49;16.80;;;3.50;;
12554;SDS011;6343;50.868;4.700;2023-11-19T02:45:15;14.23;;;3.43;;
12554;SDS011;6343;50.868;4.700;2023-11-19T02:47:42;12.00;;;2.80;;
12554;SDS011;6343;50.868;4.700;2023-11-19T02:50:12;16.97;;;2.97;;
12554;SDS011;6343;50.868;4.700;2023-11-19T02:52:41;15.33;;;3.33;;
12554;SDS011;6343;50.868;4.700;2023-11-19T02:55:08;16.93;;;3.03;;
12554;SDS011;6343;50.868;4.700;2023-11-19T02:57:41;13.67;;;2.77;;
12554;SDS011;6343;50.868;4.700;2023-11-19T03:02:40;16.70;;;3.13;;
12554;SDS011;6343;50.868;4.700;2023-11-19T03:05:11;13.23;;;2.80;;
12554;SDS011;6343;50.868;4.700;2023-11-19T03:07:39;13.07;;;2.67;;
12554;SDS011;6343;50.868;4.700;2023-11-19T03:10:06;13.83;;;3.30;;
12554;SDS011;6343;50.868;4.700;2023-11-19T03:12:34;16.40;;;4.13;;
12554;SDS011;6343;50.868;4.700;2023-11-19T03:15:00;15.90;;;3.67;;
12554;SDS011;6343;50.868;4.700;2023-11-19T03:17:26;10.00;;;3.10;;
12554;SDS011;6343;50.868;4.700;2023-11-19T03:19:52;13.70;;;3.40;;
12554;SDS011;6343;50.868;4.700;2023-11-19T03:22:18;12.77;;;2.77;;
12554;SDS011;6343;50.868;4.700;2023-11-19T03:24:46;15.43;;;3.40;;
12554;SDS011;6343;50.868;4.700;2023-11-19T03:27:12;10.40;;;2.97;;
12554;SDS011;6343;50.868;4.700;2023-11-19T03:29:38;13.63;;;3.13;;
12554;SDS011;6343;50.868;4.700;2023-11-19T03:32:04;18.57;;;3.43;;
12554;SDS011;6343;50.868;4.700;2023-11-19T03:34:30;13.80;;;3.57;;
12554;SDS011;6343;50.868;4.700;2023-11-19T03:36:56;11.03;;;3.10;;
12554;SDS011;6343;50.868;4.700;2023-11-19T03:39:22;19.13;;;3.43;;
12554;SDS011;6343;50.868;4.700;2023-11-19T03:41:50;16.10;;;3.43;;
12554;SDS011;6343;50.868;4.700;2023-11-19T03:44:16;10.83;;;2.70;;
12554;SDS011;6343;50.868;4.700;2023-11-19T03:46:44;19.57;;;3.90;;
12554;SDS011;6343;50.868;4.700;2023-11-19T03:49:11;17.93;;;3.43;;
12554;SDS011;6343;50.868;4.700;2023-11-19T03:51:37;14.80;;;3.30;;
12554;SDS011;6343;50.868;4.700;2023-11-19T03:54:03;17.23;;;3.50;;
12554;SDS011;6343;50.868;4.700;2023-11-19T03:56:29;14.67;;;3.30;;
12554;SDS011;6343;50.868;4.700;2023-11-19T03:58:56;13.90;;;2.90;;
12554;SDS011;6343;50.868;4.700;2023-11-19T04:01:22;13.37;;;2.97;;
12554;SDS011;6343;50.868;4.700;2023-11-19T04:03:48;19.10;;;3.43;;
12554;SDS011;6343;50.868;4.700;2023-11-19T04:06:14;16.27;;;3.30;;
12554;SDS011;6343;50.868;4.700;2023-11-19T04:08:40;21.33;;;3.30;;
12554;SDS011;6343;50.868;4.700;2023-11-19T04:11:06;12.43;;;2.80;;
12554;SDS011;6343;50.868;4.700;2023-11-19T04:13:33;22.43;;;4.20;;
12554;SDS011;6343;50.868;4.700;2023-11-19T04:16:00;13.80;;;3.30;;
12554;SDS011;6343;50.868;4.700;2023-11-19T04:18:26;15.63;;;3.13;;
12554;SDS011;6343;50.868;4.700;2023-11-19T04:20:52;17.20;;;3.63;;
12554;SDS011;6343;50.868;4.700;2023-11-19T04:23:18;15.07;;;3.20;;
12554;SDS011;6343;50.868;4.700;2023-11-19T04:25:44;14.97;;;3.30;;
12554;SDS011;6343;50.868;4.700;2023-11-19T04:28:11;16.43;;;3.50;;
12554;SDS011;6343;50.868;4.700;2023-11-19T04:30:37;21.77;;;3.97;;
12554;SDS011;6343;50.868;4.700;2023-11-19T04:33:03;16.63;;;3.57;;
12554;SDS011;6343;50.868;4.700;2023-11-19T04:35:29;19.30;;;3.90;;
12554;SDS011;6343;50.868;4.700;2023-11-19T04:37:55;13.67;;;3.63;;
12554;SDS011;6343;50.868;4.700;2023-11-19T04:40:22;13.40;;;3.90;;
12554;SDS011;6343;50.868;4.700;2023-11-19T04:42:48;18.47;;;4.13;;
12554;SDS011;6343;50.868;4.700;2023-11-19T04:45:15;18.70;;;3.70;;
12554;SDS011;6343;50.868;4.700;2023-11-19T04:47:41;15.67;;;3.70;;
12554;SDS011;6343;50.868;4.700;2023-11-19T04:50:08;21.70;;;3.13;;
12554;SDS011;6343;50.868;4.700;2023-11-19T04:52:37;24.40;;;3.97;;
12554;SDS011;6343;50.868;4.700;2023-11-19T04:55:10;16.90;;;3.57;;
12554;SDS011;6343;50.868;4.700;2023-11-19T04:57:39;23.83;;;4.40;;
12554;SDS011;6343;50.868;4.700;2023-11-19T05:00:05;17.87;;;4.40;;
12554;SDS011;6343;50.868;4.700;2023-11-19T05:02:33;24.87;;;4.10;;
12554;SDS011;6343;50.868;4.700;2023-11-19T05:04:59;19.27;;;3.73;;
12554;SDS011;6343;50.868;4.700;2023-11-19T05:07:25;23.43;;;4.23;;
12554;SDS011;6343;50.868;4.700;2023-11-19T05:09:51;18.97;;;3.33;;
12554;SDS011;6343;50.868;4.700;2023-11-19T05:12:17;20.37;;;4.07;;
12554;SDS011;6343;50.868;4.700;2023-11-19T05:14:43;20.33;;;3.93;;
12554;SDS011;6343;50.868;4.700;2023-11-19T05:17:14;25.67;;;4.50;;
12554;SDS011;6343;50.868;4.700;2023-11-19T05:19:40;22.63;;;4.03;;
12554;SDS011;6343;50.868;4.700;2023-11-19T05:22:06;26.33;;;4.27;;
12554;SDS011;6343;50.868;4.700;2023-11-19T05:24:32;19.47;;;3.87;;
12554;SDS011;6343;50.868;4.700;2023-11-19T05:26:59;23.97;;;4.90;;
12554;SDS011;6343;50.868;4.700;2023-11-19T05:29:25;23.57;;;5.17;;
12554;SDS011;6343;50.868;4.700;2023-11-19T05:31:52;28.93;;;4.40;;
12554;SDS011;6343;50.868;4.700;2023-11-19T05:34:19;23.83;;;4.07;;
12554;SDS011;6343;50.868;4.700;2023-11-19T05:36:46;16.93;;;3.60;;
12554;SDS011;6343;50.868;4.700;2023-11-19T05:39:12;21.63;;;4.73;;
12554;SDS011;6343;50.868;4.700;2023-11-19T05:41:39;17.80;;;4.00;;
12554;SDS011;6343;50.868;4.700;2023-11-19T05:44:05;21.20;;;4.00;;
12554;SDS011;6343;50.868;4.700;2023-11-19T05:46:31;21.97;;;4.07;;
12554;SDS011;6343;50.868;4.700;2023-11-19T05:48:58;19.33;;;4.03;;
12554;SDS011;6343;50.868;4.700;2023-11-19T05:51:24;27.77;;;5.03;;
12554;SDS011;6343;50.868;4.700;2023-11-19T05:53:50;22.87;;;3.33;;
12554;SDS011;6343;50.868;4.700;2023-11-19T05:56:16;24.47;;;3.87;;
12554;SDS011;6343;50.868;4.700;2023-11-19T05:58:46;22.10;;;4.40;;
12554;SDS011;6343;50.868;4.700;2023-11-19T06:01:14;19.57;;;4.17;;
12554;SDS011;6343;50.868;4.700;2023-11-19T06:03:40;16.63;;;4.00;;
12554;SDS011;6343;50.868;4.700;2023-11-19T06:06:08;29.57;;;5.23;;
12554;SDS011;6343;50.868;4.700;2023-11-19T06:08:35;29.00;;;4.77;;
12554;SDS011;6343;50.868;4.700;2023-11-19T06:11:02;23.93;;;4.77;;
12554;SDS011;6343;50.868;4.700;2023-11-19T06:13:28;20.27;;;3.90;;
12554;SDS011;6343;50.868;4.700;2023-11-19T06:15:55;27.97;;;5.17;;
12554;SDS011;6343;50.868;4.700;2023-11-19T06:18:21;24.93;;;4.90;;
12554;SDS011;6343;50.868;4.700;2023-11-19T06:20:48;24.87;;;3.90;;
12554;SDS011;6343;50.868;4.700;2023-11-19T06:23:14;21.67;;;4.37;;
12554;SDS011;6343;50.868;4.700;2023-11-19T06:25:41;25.57;;;5.13;;
12554;SDS011;6343;50.868;4.700;2023-11-19T06:28:07;20.10;;;4.33;;
12554;SDS011;6343;50.868;4.700;2023-11-19T06:30:33;29.87;;;4.63;;
12554;SDS011;6343;50.868;4.700;2023-11-19T06:33:01;27.10;;;4.30;;
12554;SDS011;6343;50.868;4.700;2023-11-19T06:35:28;21.30;;;3.87;;
12554;SDS011;6343;50.868;4.700;2023-11-19T06:38:01;26.70;;;5.10;;
12554;SDS011;6343;50.868;4.700;2023-11-19T06:40:27;27.10;;;4.80;;
12554;SDS011;6343;50.868;4.700;2023-11-19T06:42:54;25.43;;;4.20;;
12554;SDS011;6343;50.868;4.700;2023-11-19T06:45:20;22.67;;;5.40;;
12554;SDS011;6343;50.868;4.700;2023-11-19T06:47:47;18.50;;;3.93;;
12554;SDS011;6343;50.868;4.700;2023-11-19T06:50:13;26.33;;;4.80;;
12554;SDS011;6343;50.868;4.700;2023-11-19T06:52:40;17.53;;;3.73;;
12554;SDS011;6343;50.868;4.700;2023-11-19T06:55:07;26.37;;;4.83;;
12554;SDS011;6343;50.868;4.700;2023-11-19T06:57:33;19.20;;;4.07;;
12554;SDS011;6343;50.868;4.700;2023-11-19T06:59:59;21.93;;;4.33;;
12554;SDS011;6343;50.868;4.700;2023-11-19T07:02:25;20.07;;;3.93;;
12554;SDS011;6343;50.868;4.700;2023-11-19T07:04:52;23.50;;;4.33;;
12554;SDS011;6343;50.868;4.700;2023-11-19T07:07:18;20.97;;;3.90;;
12554;SDS011;6343;50.868;4.700;2023-11-19T07:09:45;23.47;;;4.30;;
12554;SDS011;6343;50.868;4.700;2023-11-19T07:12:11;19.30;;;4.20;;
12554;SDS011;6343;50.868;4.700;2023-11-19T07:14:38;25.47;;;4.73;;
12554;SDS011;6343;50.868;4.700;2023-11-19T07:17:04;17.00;;;3.87;;
12554;SDS011;6343;50.868;4.700;2023-11-19T07:19:31;21.07;;;4.67;;
12554;SDS011;6343;50.868;4.700;2023-11-19T07:21:57;22.80;;;4.47;;
12554;SDS011;6343;50.868;4.700;2023-11-19T07:24:23;20.30;;;4.63;;
12554;SDS011;6343;50.868;4.700;2023-11-19T07:26:49;25.23;;;4.87;;
12554;SDS011;6343;50.868;4.700;2023-11-19T07:29:15;17.83;;;4.10;;
12554;SDS011;6343;50.868;4.700;2023-11-19T07:31:42;24.17;;;5.17;;
12554;SDS011;6343;50.868;4.700;2023-11-19T07:34:11;26.03;;;3.90;;
12554;SDS011;6343;50.868;4.700;2023-11-19T07:36:37;26.57;;;4.43;;
12554;SDS011;6343;50.868;4.700;2023-11-19T07:39:03;21.40;;;4.53;;
12554;SDS011;6343;50.868;4.700;2023-11-19T07:41:30;26.87;;;4.70;;
12554;SDS011;6343;50.868;4.700;2023-11-19T07:43:56;24.50;;;5.13;;
12554;SDS011;6343;50.868;4.700;2023-11-19T07:46:22;25.87;;;5.17;;
12554;SDS011;6343;50.868;4.700;2023-11-19T07:48:50;24.43;;;4.63;;
12554;SDS011;6343;50.868;4.700;2023-11-19T07:51:16;23.57;;;5.47;;
12554;SDS011;6343;50.868;4.700;2023-11-19T07:53:42;20.13;;;4.30;;
12554;SDS011;6343;50.868;4.700;2023-11-19T07:56:08;21.67;;;4.50;;
12554;SDS011;6343;50.868;4.700;2023-11-19T07:58:35;21.90;;;4.53;;
12554;SDS011;6343;50.868;4.700;2023-11-19T08:01:01;21.97;;;4.47;;
12554;SDS011;6343;50.868;4.700;2023-11-19T08:03:27;22.40;;;5.67;;
12554;SDS011;6343;50.868;4.700;2023-11-19T08:05:57;26.03;;;5.20;;
12554;SDS011;6343;50.868;4.700;2023-11-19T08:08:23;26.33;;;4.90;;
12554;SDS011;6343;50.868;4.700;2023-11-19T08:10:49;24.23;;;5.40;;
12554;SDS011;6343;50.868;4.700;2023-11-19T08:13:19;28.43;;;4.70;;
12554;SDS011;6343;50.868;4.700;2023-11-19T08:15:45;24.37;;;4.60;;
12554;SDS011;6343;50.868;4.700;2023-11-19T08:18:12;22.83;;;4.40;;
12554;SDS011;6343;50.868;4.700;2023-11-19T08:20:38;19.37;;;4.17;;
12554;SDS011;6343;50.868;4.700;2023-11-19T08:23:04;20.60;;;4.50;;
12554;SDS011;6343;50.868;4.700;2023-11-19T08:25:30;20.90;;;4.47;;
12554;SDS011;6343;50.868;4.700;2023-11-19T08:27:58;24.00;;;5.17;;
12554;SDS011;6343;50.868;4.700;2023-11-19T08:30:25;25.37;;;4.43;;
12554;SDS011;6343;50.868;4.700;2023-11-19T08:32:52;25.00;;;3.90;;
12554;SDS011;6343;50.868;4.700;2023-11-19T08:35:18;20.00;;;4.00;;
12554;SDS011;6343;50.868;4.700;2023-11-19T08:37:44;23.33;;;4.37;;
12554;SDS011;6343;50.868;4.700;2023-11-19T08:40:11;17.00;;;4.63;;
12554;SDS011;6343;50.868;4.700;2023-11-19T08:42:39;22.53;;;4.37;;
12554;SDS011;6343;50.868;4.700;2023-11-19T08:45:07;16.63;;;3.60;;
12554;SDS011;6343;50.868;4.700;2023-11-19T08:47:37;25.27;;;4.10;;
12554;SDS011;6343;50.868;4.700;2023-11-19T08:50:03;19.53;;;4.30;;
12554;SDS011;6343;50.868;4.700;2023-11-19T08:52:29;26.60;;;5.20;;
12554;SDS011;6343;50.868;4.700;2023-11-19T08:54:55;20.87;;;5.33;;
12554;SDS011;6343;50.868;4.700;2023-11-19T08:57:22;21.53;;;4.17;;
12554;SDS011;6343;50.868;4.700;2023-11-19T08:59:48;24.93;;;4.43;;
12554;SDS011;6343;50.868;4.700;2023-11-19T09:02:14;17.97;;;3.30;;
12554;SDS011;6343;50.868;4.700;2023-11-19T09:04:41;14.63;;;3.23;;
12554;SDS011;6343;50.868;4.700;2023-11-19T09:07:07;19.47;;;4.10;;
12554;SDS011;6343;50.868;4.700;2023-11-19T09:09:36;18.13;;;4.37;;
12554;SDS011;6343;50.868;4.700;2023-11-19T09:12:02;28.83;;;4.60;;
12554;SDS011;6343;50.868;4.700;2023-11-19T09:14:29;24.47;;;5.30;;
12554;SDS011;6343;50.868;4.700;2023-11-19T09:16:55;17.10;;;3.80;;
12554;SDS011;6343;50.868;4.700;2023-11-19T09:19:21;21.77;;;4.23;;
12554;SDS011;6343;50.868;4.700;2023-11-19T09:21:48;19.87;;;4.10;;
12554;SDS011;6343;50.868;4.700;2023-11-19T09:24:14;22.03;;;4.40;;
12554;SDS011;6343;50.868;4.700;2023-11-19T09:26:40;15.40;;;4.17;;
12554;SDS011;6343;50.868;4.700;2023-11-19T09:29:07;26.17;;;4.27;;
12554;SDS011;6343;50.868;4.700;2023-11-19T09:31:33;15.47;;;3.87;;
12554;SDS011;6343;50.868;4.700;2023-11-19T09:33:59;19.90;;;4.30;;
12554;SDS011;6343;50.868;4.700;2023-11-19T09:36:26;18.80;;;4.57;;
12554;SDS011;6343;50.868;4.700;2023-11-19T09:38:52;14.93;;;3.60;;
12554;SDS011;6343;50.868;4.700;2023-11-19T09:41:18;21.87;;;3.80;;
12554;SDS011;6343;50.868;4.700;2023-11-19T09:43:44;23.50;;;4.40;;
12554;SDS011;6343;50.868;4.700;2023-11-19T09:46:12;19.03;;;4.00;;
12554;SDS011;6343;50.868;4.700;2023-11-19T09:48:38;15.13;;;3.20;;
12554;SDS011;6343;50.868;4.700;2023-11-19T09:51:08;11.80;;;2.97;;
12554;SDS011;6343;50.868;4.700;2023-11-19T09:53:35;16.33;;;3.20;;
12554;SDS011;6343;50.868;4.700;2023-11-19T09:56:02;15.60;;;3.57;;
12554;SDS011;6343;50.868;4.700;2023-11-19T09:58:29;23.43;;;4.10;;
12554;SDS011;6343;50.868;4.700;2023-11-19T10:00:56;19.97;;;3.97;;
12554;SDS011;6343;50.868;4.700;2023-11-19T10:05:51;13.87;;;3.33;;
12554;SDS011;6343;50.868;4.700;2023-11-19T10:08:17;9.50;;;2.80;;
12554;SDS011;6343;50.868;4.700;2023-11-19T10:10:43;18.90;;;4.03;;
12554;SDS011;6343;50.868;4.700;2023-11-19T10:13:09;15.47;;;3.20;;
12554;SDS011;6343;50.868;4.700;2023-11-19T10:15:36;20.70;;;3.50;;
12554;SDS011;6343;50.868;4.700;2023-11-19T10:18:02;12.70;;;3.40;;
12554;SDS011;6343;50.868;4.700;2023-11-19T10:20:35;17.00;;;3.73;;
12554;SDS011;6343;50.868;4.700;2023-11-19T10:23:01;15.90;;;3.73;;
12554;SDS011;6343;50.868;4.700;2023-11-19T10:25:28;20.10;;;3.30;;
12554;SDS011;6343;50.868;4.700;2023-11-19T10:27:55;15.30;;;3.43;;
12554;SDS011;6343;50.868;4.700;2023-11-19T10:30:22;13.43;;;4.37;;
12554;SDS011;6343;50.868;4.700;2023-11-19T10:33:09;18.03;;;3.80;;
12554;SDS011;6343;50.868;4.700;2023-11-19T10:35:35;20.60;;;3.87;;
12554;SDS011;6343;50.868;4.700;2023-11-19T10:38:01;16.97;;;3.47;;
12554;SDS011;6343;50.868;4.700;2023-11-19T10:40:39;12.83;;;3.53;;
12554;SDS011;6343;50.868;4.700;2023-11-19T10:43:05;22.37;;;4.40;;
12554;SDS011;6343;50.868;4.700;2023-11-19T10:45:33;19.17;;;4.23;;
12554;SDS011;6343;50.868;4.700;2023-11-19T10:47:59;16.37;;;4.13;;
12554;SDS011;6343;50.868;4.700;2023-11-19T10:50:26;18.70;;;3.80;;
12554;SDS011;6343;50.868;4.700;2023-11-19T10:52:56;17.33;;;4.20;;
12554;SDS011;6343;50.868;4.700;2023-11-19T10:55:28;18.77;;;3.33;;
12554;SDS011;6343;50.868;4.700;2023-11-19T10:58:02;26.13;;;4.00;;
12554;SDS011;6343;50.868;4.700;2023-11-19T11:01:16;20.17;;;4.20;;
12554;SDS011;6343;50.868;4.700;2023-11-19T11:03:16;15.47;;;3.60;;
12554;SDS011;6343;50.868;4.700;2023-11-19T11:05:42;17.97;;;4.00;;
12554;SDS011;6343;50.868;4.700;2023-11-19T11:08:09;14.67;;;3.50;;
12554;SDS011;6343;50.868;4.700;2023-11-19T11:10:39;20.37;;;3.43;;
12554;SDS011;6343;50.868;4.700;2023-11-19T11:13:09;14.57;;;2.80;;
12554;SDS011;6343;50.868;4.700;2023-11-19T11:15:35;18.40;;;3.60;;
12554;SDS011;6343;50.868;4.700;2023-11-19T11:18:02;14.43;;;3.13;;
12554;SDS011;6343;50.868;4.700;2023-11-19T11:20:31;20.57;;;4.17;;
12554;SDS011;6343;50.868;4.700;2023-11-19T11:25:43;16.97;;;3.77;;
12554;SDS011;6343;50.868;4.700;2023-11-19T11:28:35;17.67;;;4.20;;
12554;SDS011;6343;50.868;4.700;2023-11-19T11:31:22;14.47;;;3.23;;
12554;SDS011;6343;50.868;4.700;2023-11-19T11:36:36;19.47;;;3.20;;
12554;SDS011;6343;50.868;4.700;2023-11-19T11:39:07;19.50;;;4.07;;
12554;SDS011;6343;50.868;4.700;2023-11-19T11:41:33;16.83;;;3.73;;
12554;SDS011;6343;50.868;4.700;2023-11-19T11:44:00;17.80;;;3.07;;
12554;SDS011;6343;50.868;4.700;2023-11-19T11:49:03;17.70;;;3.43;;
12554;SDS011;6343;50.868;4.700;2023-11-19T11:54:11;21.60;;;4.47;;
12554;SDS011;6343;50.868;4.700;2023-11-19T11:56:37;20.73;;;4.00;;
12554;SDS011;6343;50.868;4.700;2023-11-19T11:59:07;14.33;;;3.07;;
12554;SDS011;6343;50.868;4.700;2023-11-19T12:01:34;16.57;;;3.67;;
12554;SDS011;6343;50.868;4.700;2023-11-19T12:04:00;16.50;;;3.47;;
12554;SDS011;6343;50.868;4.700;2023-11-19T12:06:27;19.97;;;3.30;;
12554;SDS011;6343;50.868;4.700;2023-11-19T12:08:59;15.90;;;3.50;;
12554;SDS011;6343;50.868;4.700;2023-11-19T12:11:25;11.17;;;3.10;;
12554;SDS011;6343;50.868;4.700;2023-11-19T12:13:54;20.30;;;4.17;;
12554;SDS011;6343;50.868;4.700;2023-11-19T12:16:27;20.47;;;3.47;;
12554;SDS011;6343;50.868;4.700;2023-11-19T12:18:54;18.60;;;3.50;;
12554;SDS011;6343;50.868;4.700;2023-11-19T12:21:27;13.60;;;3.20;;
12554;SDS011;6343;50.868;4.700;2023-11-19T12:23:54;20.10;;;4.10;;
12554;SDS011;6343;50.868;4.700;2023-11-19T12:26:31;12.00;;;2.80;;
12554;SDS011;6343;50.868;4.700;2023-11-19T12:29:00;13.70;;;3.10;;
12554;SDS011;6343;50.868;4.700;2023-11-19T12:31:29;11.37;;;2.60;;
12554;SDS011;6343;50.868;4.700;2023-11-19T12:33:55;11.47;;;2.60;;
12554;SDS011;6343;50.868;4.700;2023-11-19T12:36:22;9.50;;;2.07;;
12554;SDS011;6343;50.868;4.700;2023-11-19T12:38:48;11.47;;;2.93;;
12554;SDS011;6343;50.868;4.700;2023-11-19T12:41:14;11.37;;;2.70;;
12554;SDS011;6343;50.868;4.700;2023-11-19T12:43:45;15.10;;;3.23;;
12554;SDS011;6343;50.868;4.700;2023-11-19T12:46:21;14.47;;;3.07;;
12554;SDS011;6343;50.868;4.700;2023-11-19T12:48:50;9.13;;;2.60;;
12554;SDS011;6343;50.868;4.700;2023-11-19T12:51:17;12.43;;;3.23;;
12554;SDS011;6343;50.868;4.700;2023-11-19T12:54:01;21.03;;;3.80;;
12554;SDS011;6343;50.868;4.700;2023-11-19T12:56:27;16.07;;;3.53;;
12554;SDS011;6343;50.868;4.700;2023-11-19T12:58:54;17.90;;;3.73;;
12554;SDS011;6343;50.868;4.700;2023-11-19T13:01:21;15.07;;;3.70;;
12554;SDS011;6343;50.868;4.700;2023-11-19T13:03:47;13.23;;;3.63;;
12554;SDS011;6343;50.868;4.700;2023-11-19T13:06:14;19.17;;;3.70;;
12554;SDS011;6343;50.868;4.700;2023-11-19T13:08:46;17.83;;;3.43;;
12554;SDS011;6343;50.868;4.700;2023-11-19T13:11:35;9.50;;;3.50;;
12554;SDS011;6343;50.868;4.700;2023-11-19T13:14:04;12.63;;;3.63;;
12554;SDS011;6343;50.868;4.700;2023-11-19T13:16:36;15.97;;;4.10;;
12554;SDS011;6343;50.868;4.700;2023-11-19T13:19:02;11.97;;;3.00;;
12554;SDS011;6343;50.868;4.700;2023-11-19T13:21:29;15.37;;;3.90;;
12554;SDS011;6343;50.868;4.700;2023-11-19T13:23:55;17.47;;;3.70;;
12554;SDS011;6343;50.868;4.700;2023-11-19T13:26:21;18.30;;;4.27;;
12554;SDS011;6343;50.868;4.700;2023-11-19T13:28:48;16.27;;;3.50;;
12554;SDS011;6343;50.868;4.700;2023-11-19T13:31:14;22.47;;;4.00;;
12554;SDS011;6343;50.868;4.700;2023-11-19T13:33:40;15.23;;;3.67;;
12554;SDS011;6343;50.868;4.700;2023-11-19T13:36:07;11.77;;;3.90;;
12554;SDS011;6343;50.868;4.700;2023-11-19T13:38:34;16.90;;;4.63;;
12554;SDS011;6343;50.868;4.700;2023-11-19T13:41:01;18.63;;;3.80;;
12554;SDS011;6343;50.868;4.700;2023-11-19T13:43:27;12.33;;;3.03;;
12554;SDS011;6343;50.868;4.700;2023-11-19T13:45:54;11.20;;;3.63;;
12554;SDS011;6343;50.868;4.700;2023-11-19T13:48:20;19.40;;;3.43;;
12554;SDS011;6343;50.868;4.700;2023-11-19T13:50:47;14.83;;;3.30;;
12554;SDS011;6343;50.868;4.700;2023-11-19T13:53:13;17.70;;;3.60;;
12554;SDS011;6343;50.868;4.700;2023-11-19T13:55:39;17.53;;;3.53;;
12554;SDS011;6343;50.868;4.700;2023-11-19T13:58:05;16.17;;;4.13;;
12554;SDS011;6343;50.868;4.700;2023-11-19T14:00:31;13.83;;;3.50;;
12554;SDS011;6343;50.868;4.700;2023-11-19T14:02:57;14.20;;;3.70;;
12554;SDS011;6343;50.868;4.700;2023-11-19T14:05:23;12.53;;;3.50;;
12554;SDS011;6343;50.868;4.700;2023-11-19T14:07:49;18.93;;;3.70;;
12554;SDS011;6343;50.868;4.700;2023-11-19T14:10:16;20.10;;;3.97;;
12554;SDS011;6343;50.868;4.700;2023-11-19T14:12:43;19.50;;;3.90;;
12554;SDS011;6343;50.868;4.700;2023-11-19T14:15:09;15.17;;;4.23;;
12554;SDS011;6343;50.868;4.700;2023-11-19T14:17:37;17.30;;;3.73;;
12554;SDS011;6343;50.868;4.700;2023-11-19T14:20:04;14.27;;;3.70;;
12554;SDS011;6343;50.868;4.700;2023-11-19T14:22:38;19.97;;;4.17;;
12554;SDS011;6343;50.868;4.700;2023-11-19T14:25:04;23.27;;;3.60;;
12554;SDS011;6343;50.868;4.700;2023-11-19T14:27:35;18.37;;;3.80;;
12554;SDS011;6343;50.868;4.700;2023-11-19T14:30:01;18.30;;;4.77;;
12554;SDS011;6343;50.868;4.700;2023-11-19T14:32:27;18.70;;;4.20;;
12554;SDS011;6343;50.868;4.700;2023-11-19T14:34:53;18.87;;;4.27;;
12554;SDS011;6343;50.868;4.700;2023-11-19T14:37:20;11.80;;;3.70;;
12554;SDS011;6343;50.868;4.700;2023-11-19T14:39:46;16.93;;;4.07;;
12554;SDS011;6343;50.868;4.700;2023-11-19T14:42:12;17.83;;;3.60;;
12554;SDS011;6343;50.868;4.700;2023-11-19T14:44:39;20.80;;;3.47;;
12554;SDS011;6343;50.868;4.700;2023-11-19T14:47:05;15.90;;;4.13;;
12554;SDS011;6343;50.868;4.700;2023-11-19T14:49:31;19.13;;;3.70;;
12554;SDS011;6343;50.868;4.700;2023-11-19T14:51:57;21.23;;;4.30;;
12554;SDS011;6343;50.868;4.700;2023-11-19T14:54:24;23.43;;;3.87;;
12554;SDS011;6343;50.868;4.700;2023-11-19T14:56:51;23.60;;;4.33;;
12554;SDS011;6343;50.868;4.700;2023-11-19T14:59:17;19.53;;;3.60;;
12554;SDS011;6343;50.868;4.700;2023-11-19T15:01:46;17.80;;;3.60;;
12554;SDS011;6343;50.868;4.700;2023-11-19T15:04:13;19.07;;;4.13;;